createdAt,value
2019-03-23T00:01:56.252Z,165.00
2019-03-23T00:04:37.090Z,163.73
2019-03-23T00:07:17.563Z,152.97
2019-03-23T00:09:58.923Z,153.90
2019-03-23T00:12:40.119Z,155.03
2019-03-23T00:15:21.062Z,159.13
2019-03-23T00:18:02.064Z,161.13
2019-03-23T00:20:42.775Z,151.43
2019-03-23T00:23:23.501Z,163.27
2019-03-23T00:26:04.374Z,147.60
2019-03-23T00:28:45.025Z,148.17
2019-03-23T00:31:25.786Z,141.57
2019-03-23T00:34:06.467Z,136.80
2019-03-23T00:36:47.122Z,131.77
2019-03-23T00:39:27.740Z,128.67
2019-03-23T00:42:08.480Z,118.70
2019-03-23T00:44:49.373Z,115.53
2019-03-23T00:47:30.191Z,112.53
2019-03-23T00:50:11.012Z,101.87
2019-03-23T00:52:51.832Z,95.10
2019-03-23T00:55:32.399Z,100.57
2019-03-23T00:58:13.543Z,94.90
2019-03-23T01:00:54.217Z,93.27
2019-03-23T01:03:34.952Z,91.57
2019-03-23T01:06:15.905Z,89.90
2019-03-23T01:08:56.923Z,94.27
2019-03-23T01:11:37.805Z,89.57
2019-03-23T01:14:18.556Z,91.73
2019-03-23T01:16:58.988Z,85.77
2019-03-23T01:19:39.909Z,86.63
2019-03-23T01:22:20.813Z,84.57
2019-03-23T01:25:01.451Z,87.27
2019-03-23T01:30:24.493Z,93.50
2019-03-23T01:35:47.305Z,87.93
2019-03-23T01:38:29.980Z,93.60
2019-03-23T01:41:10.865Z,84.53
2019-03-23T01:43:51.522Z,94.93
2019-03-23T01:46:32.182Z,91.87
2019-03-23T01:49:13.097Z,89.53
2019-03-23T01:51:54.074Z,90.70
2019-03-23T01:54:34.868Z,92.13
2019-03-23T01:57:15.499Z,89.73
2019-03-23T01:59:56.010Z,84.70
2019-03-23T02:02:36.412Z,79.90
2019-03-23T02:05:16.973Z,82.10
2019-03-23T02:07:57.752Z,80.63
2019-03-23T02:10:41.793Z,76.07
2019-03-23T02:13:22.390Z,80.60
2019-03-23T02:16:03.155Z,77.27
2019-03-23T02:18:44.092Z,71.63
2019-03-23T02:21:24.932Z,71.40
2019-03-23T02:24:05.531Z,67.27
2019-03-23T02:26:46.197Z,72.57
2019-03-23T02:29:27.265Z,70.10
2019-03-23T02:32:07.940Z,71.97
2019-03-23T02:34:48.913Z,70.27
2019-03-23T02:37:30.209Z,73.23
2019-03-23T02:40:11.364Z,72.03
2019-03-23T02:42:51.812Z,75.57
2019-03-23T02:45:32.651Z,73.13
2019-03-23T02:48:13.582Z,69.83
2019-03-23T02:50:58.444Z,73.57
2019-03-23T02:53:39.057Z,74.43
2019-03-23T02:56:19.617Z,69.67
2019-03-23T02:59:00.148Z,76.83
2019-03-23T03:01:40.685Z,68.03
2019-03-23T03:04:21.416Z,74.77
2019-03-23T03:07:02.940Z,74.73
2019-03-23T03:09:44.045Z,77.30
2019-03-23T03:12:25.102Z,71.17
2019-03-23T03:15:06.021Z,72.10
2019-03-23T03:17:47.216Z,76.97
2019-03-23T03:20:28.838Z,75.17
2019-03-23T03:23:10.015Z,76.87
2019-03-23T03:25:51.540Z,71.93
2019-03-23T03:28:32.464Z,74.90
2019-03-23T03:31:13.167Z,74.00
2019-03-23T03:33:41.901Z,73.70
2019-03-23T03:36:30.337Z,74.20
2019-03-23T03:39:00.583Z,77.67
2019-03-23T03:41:48.746Z,76.50
2019-03-23T03:44:29.620Z,78.20
2019-03-23T03:46:58.243Z,72.50
2019-03-23T03:49:46.070Z,77.93
2019-03-23T03:52:33.905Z,71.07
2019-03-23T03:55:14.609Z,72.07
2019-03-23T03:57:55.650Z,75.67
2019-03-23T04:00:36.725Z,73.93
2019-03-23T04:03:17.118Z,74.77
2019-03-23T04:05:57.918Z,72.43
2019-03-23T04:08:39.086Z,68.77
2019-03-23T04:11:20.309Z,70.40
2019-03-23T04:14:01.138Z,70.63
2019-03-23T04:16:41.908Z,71.67
2019-03-23T04:19:22.842Z,68.23
2019-03-23T04:22:04.998Z,72.13
2019-03-23T04:24:45.390Z,70.97
2019-03-23T04:27:26.079Z,71.63
2019-03-23T04:30:06.841Z,72.90
2019-03-23T04:32:47.513Z,76.67
2019-03-23T04:35:28.433Z,72.90
2019-03-23T04:38:09.368Z,73.50
2019-03-23T04:40:50.521Z,70.13
2019-03-23T04:43:31.531Z,78.67
2019-03-23T04:46:12.176Z,70.00
2019-03-23T04:48:53.060Z,67.20
2019-03-23T04:51:33.754Z,76.77
2019-03-23T04:54:14.902Z,74.83
2019-03-23T04:56:55.647Z,70.30
2019-03-23T04:59:36.744Z,76.40
2019-03-23T05:02:17.661Z,75.47
2019-03-23T05:04:58.553Z,74.87
2019-03-23T05:07:39.336Z,75.93
2019-03-23T05:10:19.966Z,69.10
2019-03-23T05:13:01.286Z,74.17
2019-03-23T05:15:42.396Z,70.90
2019-03-23T05:18:23.181Z,68.00
2019-03-23T05:21:04.047Z,77.20
2019-03-23T05:23:45.906Z,75.60
2019-03-23T05:26:26.841Z,75.63
2019-03-23T05:29:08.880Z,75.70
2019-03-23T05:31:50.001Z,73.50
2019-03-23T05:34:30.909Z,76.57
2019-03-23T05:37:11.725Z,78.73
2019-03-23T05:39:52.655Z,74.33
2019-03-23T05:42:33.108Z,74.40
2019-03-23T05:45:14.209Z,82.13
2019-03-23T05:47:54.799Z,82.53
2019-03-23T05:50:35.521Z,77.97
2019-03-23T05:53:16.272Z,76.97
2019-03-23T05:55:57.039Z,77.17
2019-03-23T05:58:37.892Z,76.93
2019-03-23T06:01:18.684Z,77.67
2019-03-23T06:04:00.248Z,79.70
2019-03-23T06:06:41.141Z,79.50
2019-03-23T06:09:22.153Z,81.03
2019-03-23T06:12:04.869Z,81.17
2019-03-23T06:14:45.410Z,82.47
2019-03-23T06:17:25.974Z,80.10
2019-03-23T06:20:06.647Z,76.07
2019-03-23T06:22:47.257Z,75.90
2019-03-23T06:25:28.072Z,79.67
2019-03-23T06:28:08.977Z,82.83
2019-03-23T06:30:49.804Z,83.03
2019-03-23T06:33:30.809Z,80.10
2019-03-23T06:36:11.277Z,85.83
2019-03-23T06:38:51.536Z,77.80
2019-03-23T06:41:32.073Z,81.00
2019-03-23T06:44:12.501Z,82.07
2019-03-23T06:46:53.357Z,80.33
2019-03-23T06:49:34.155Z,79.57
2019-03-23T06:52:14.856Z,86.77
2019-03-23T06:54:55.914Z,78.70
2019-03-23T06:57:36.871Z,75.67
2019-03-23T07:00:17.599Z,80.50
2019-03-23T07:05:47.717Z,82.27
2019-03-23T07:08:32.188Z,79.83
2019-03-23T07:11:11.569Z,79.30
2019-03-23T07:13:52.321Z,78.60
2019-03-23T07:16:32.987Z,85.27
2019-03-23T07:19:13.941Z,77.00
2019-03-23T07:21:54.435Z,78.57
2019-03-23T07:24:35.376Z,81.43
2019-03-23T07:27:16.175Z,79.10
2019-03-23T07:29:57.019Z,80.53
2019-03-23T07:32:37.965Z,84.17
2019-03-23T07:38:01.535Z,78.17
2019-03-23T07:40:49.353Z,78.20
2019-03-23T07:43:37.175Z,77.10
2019-03-23T07:46:05.761Z,82.70
2019-03-23T07:48:53.670Z,84.73
2019-03-23T07:51:34.871Z,77.27
2019-03-23T07:54:15.478Z,82.13
2019-03-23T07:56:56.258Z,82.47
2019-03-23T07:59:37.558Z,75.30
2019-03-23T08:02:18.355Z,75.10
2019-03-23T08:04:59.245Z,76.20
2019-03-23T08:07:28.127Z,80.63
2019-03-23T08:10:27.262Z,80.17
2019-03-23T08:13:08.415Z,79.20
2019-03-23T08:15:49.689Z,80.27
2019-03-23T08:18:30.244Z,79.03
2019-03-23T08:21:11.054Z,78.83
2019-03-23T08:23:51.660Z,79.33
2019-03-23T08:26:32.550Z,78.60
2019-03-23T08:29:13.253Z,80.73
2019-03-23T08:31:54.526Z,79.80
2019-03-23T08:34:35.477Z,76.30
2019-03-23T08:37:44.019Z,75.97
2019-03-23T08:40:31.930Z,80.13
2019-03-23T08:43:12.581Z,75.30
2019-03-23T08:45:53.215Z,77.97
2019-03-23T08:48:34.189Z,75.60
2019-03-23T08:51:14.985Z,82.30
2019-03-23T08:53:55.651Z,75.90
2019-03-23T08:56:37.461Z,85.57
2019-03-23T08:59:17.983Z,71.13
2019-03-23T09:01:58.660Z,75.90
2019-03-23T09:04:39.672Z,72.97
2019-03-23T09:07:20.494Z,71.07
2019-03-23T09:10:01.481Z,72.57
2019-03-23T09:12:41.938Z,67.37
2019-03-23T09:15:22.546Z,66.47
2019-03-23T09:18:03.382Z,68.97
2019-03-23T09:20:43.850Z,62.73
2019-03-23T09:23:24.771Z,63.27
2019-03-23T09:26:05.568Z,62.70
2019-03-23T09:28:44.361Z,55.60
2019-03-23T09:31:23.305Z,63.57
2019-03-23T09:34:11.541Z,57.27
2019-03-23T09:36:52.525Z,60.33
2019-03-23T09:39:32.984Z,55.00
2019-03-23T09:42:14.050Z,60.83
2019-03-23T09:44:54.800Z,60.77
2019-03-23T09:47:35.743Z,55.17
2019-03-23T09:50:16.619Z,57.43
2019-03-23T09:52:57.705Z,55.43
2019-03-23T09:55:38.448Z,55.20
2019-03-23T09:58:19.299Z,59.57
2019-03-23T10:01:00.250Z,58.40
2019-03-23T10:03:42.875Z,57.70
2019-03-23T10:06:23.487Z,53.87
2019-03-23T10:09:04.696Z,55.33
2019-03-23T10:11:45.344Z,50.87
2019-03-23T10:14:26.407Z,52.73
2019-03-23T10:17:07.287Z,55.67
2019-03-23T10:19:48.218Z,50.47
2019-03-23T10:22:28.813Z,53.03
2019-03-23T10:25:09.559Z,53.70
2019-03-23T10:27:51.242Z,55.00
2019-03-23T10:30:31.880Z,50.33
2019-03-23T10:33:12.708Z,47.17
2019-03-23T10:35:53.295Z,51.00
2019-03-23T10:38:34.219Z,46.97
2019-03-23T10:41:15.213Z,52.27
2019-03-23T10:43:55.860Z,47.63
2019-03-23T10:46:36.842Z,50.87
2019-03-23T10:49:17.587Z,50.43
2019-03-23T10:51:58.479Z,48.03
2019-03-23T10:54:39.442Z,50.47
2019-03-23T10:57:20.573Z,49.97
2019-03-23T11:00:01.452Z,44.63
2019-03-23T11:02:42.356Z,48.70
2019-03-23T11:05:22.895Z,46.17
2019-03-23T11:08:03.364Z,47.27
2019-03-23T11:10:43.864Z,48.67
2019-03-23T11:13:24.510Z,49.37
2019-03-23T11:16:05.089Z,50.17
2019-03-23T11:18:45.714Z,45.07
2019-03-23T11:21:26.596Z,47.80
2019-03-23T11:24:07.307Z,44.93
2019-03-23T11:26:47.827Z,46.07
2019-03-23T11:29:28.903Z,48.93
2019-03-23T11:32:10.914Z,48.37
2019-03-23T11:34:51.878Z,42.67
2019-03-23T11:37:33.021Z,51.37
2019-03-23T11:40:14.103Z,46.33
2019-03-23T11:42:55.181Z,49.97
2019-03-23T11:45:35.996Z,47.93
2019-03-23T11:48:16.759Z,43.73
2019-03-23T11:50:57.679Z,44.17
2019-03-23T11:53:38.735Z,46.00
2019-03-23T11:56:20.532Z,46.50
2019-03-23T11:59:01.121Z,41.27
2019-03-23T12:01:51.513Z,39.43
2019-03-23T12:04:26.696Z,44.57
2019-03-23T12:07:08.520Z,44.47
2019-03-23T12:09:49.411Z,40.80
2019-03-23T12:12:32.305Z,42.93
2019-03-23T12:15:13.178Z,45.57
2019-03-23T12:17:54.346Z,46.80
2019-03-23T12:20:35.195Z,41.03
2019-03-23T12:23:16.069Z,42.03
2019-03-23T12:25:57.059Z,40.27
2019-03-23T12:28:37.753Z,42.10
2019-03-23T12:31:20.600Z,45.20
2019-03-23T12:34:00.701Z,44.60
2019-03-23T12:36:41.839Z,46.40
2019-03-23T12:39:22.763Z,50.63
2019-03-23T12:42:03.790Z,45.47
2019-03-23T12:44:44.124Z,44.60
2019-03-23T12:47:25.156Z,43.23
2019-03-23T12:50:06.309Z,42.93
2019-03-23T12:52:46.662Z,42.27
2019-03-23T12:55:27.558Z,39.37
2019-03-23T12:58:08.292Z,43.70
2019-03-23T13:00:48.955Z,42.43
2019-03-23T13:03:29.572Z,37.67
2019-03-23T13:06:10.430Z,36.17
2019-03-23T13:08:51.126Z,35.77
2019-03-23T13:11:35.694Z,37.87
2019-03-23T13:14:14.578Z,35.87
2019-03-23T13:16:55.162Z,34.33
2019-03-23T13:19:35.932Z,35.73
2019-03-23T13:22:16.744Z,36.73
2019-03-23T13:24:58.022Z,35.33
2019-03-23T13:27:38.536Z,36.77
2019-03-23T13:30:19.597Z,33.57
2019-03-23T13:33:00.172Z,36.00
2019-03-23T13:35:40.930Z,39.57
2019-03-23T13:38:23.083Z,38.33
2019-03-23T13:41:03.925Z,42.97
2019-03-23T13:43:44.456Z,38.90
2019-03-23T13:46:25.511Z,40.87
2019-03-23T13:49:06.027Z,41.43
2019-03-23T13:51:47.113Z,43.77
2019-03-23T13:54:28.836Z,39.90
2019-03-23T13:57:09.128Z,43.13
2019-03-23T14:02:51.238Z,48.80
2019-03-23T14:05:31.854Z,46.73
2019-03-23T14:08:12.787Z,46.93
2019-03-23T14:10:53.324Z,48.40
2019-03-23T14:13:33.907Z,46.93
2019-03-23T14:16:17.564Z,49.67
2019-03-23T14:18:58.289Z,51.83
2019-03-23T14:21:38.877Z,41.07
2019-03-23T14:24:19.396Z,42.20
2019-03-23T14:27:02.366Z,43.17
2019-03-23T14:29:45.360Z,43.43
2019-03-23T14:32:26.090Z,40.37
2019-03-23T14:35:07.003Z,37.20
2019-03-23T14:37:48.028Z,36.23
2019-03-23T14:40:29.107Z,33.93
2019-03-23T14:43:09.792Z,35.63
2019-03-23T14:45:50.503Z,36.93
2019-03-23T14:48:31.043Z,29.53
2019-03-23T14:51:11.808Z,27.23
2019-03-23T14:53:52.648Z,28.27
2019-03-23T14:56:33.770Z,28.07
2019-03-23T14:59:14.104Z,24.27
2019-03-23T15:01:54.833Z,23.87
2019-03-23T15:04:35.266Z,25.50
2019-03-23T15:07:16.212Z,21.90
2019-03-23T15:09:56.667Z,23.87
2019-03-23T15:12:37.571Z,23.40
2019-03-23T15:15:18.121Z,18.87
2019-03-23T15:17:59.002Z,17.77
2019-03-23T15:20:39.849Z,19.63
2019-03-23T15:23:21.002Z,18.40
2019-03-23T15:26:01.730Z,22.90
2019-03-23T15:28:43.738Z,13.57
2019-03-23T15:31:24.417Z,18.57
2019-03-23T15:34:05.158Z,14.63
2019-03-23T15:36:45.906Z,14.77
2019-03-23T15:39:26.835Z,14.80
2019-03-23T15:42:07.423Z,16.43
2019-03-23T15:44:48.109Z,11.90
2019-03-23T15:47:28.874Z,15.10
2019-03-23T15:50:10.391Z,17.07
2019-03-23T15:52:51.406Z,10.03
2019-03-23T15:58:44.709Z,12.53
2019-03-23T16:01:25.534Z,10.47
2019-03-23T16:04:06.104Z,13.03
2019-03-23T16:06:46.751Z,10.90
2019-03-23T16:09:27.345Z,8.73
2019-03-23T16:12:07.770Z,10.27
2019-03-23T16:14:48.640Z,7.53
2019-03-23T16:17:29.312Z,11.57
2019-03-23T16:20:10.041Z,9.97
2019-03-23T16:22:50.942Z,15.73
2019-03-23T16:25:31.926Z,8.30
2019-03-23T16:28:12.984Z,11.93
2019-03-23T16:30:53.957Z,13.13
2019-03-23T16:33:34.747Z,13.60
2019-03-23T16:36:15.265Z,12.57
2019-03-23T16:38:56.130Z,17.60
2019-03-23T16:41:36.774Z,15.13
2019-03-23T16:44:17.638Z,8.43
2019-03-23T16:46:58.510Z,15.33
2019-03-23T16:49:39.455Z,12.67
2019-03-23T16:52:21.369Z,13.20
2019-03-23T16:55:05.148Z,12.97
2019-03-23T17:00:58.436Z,12.60
2019-03-23T17:03:46.225Z,11.77
2019-03-23T17:06:34.046Z,15.20
2019-03-23T17:09:18.196Z,15.07
2019-03-23T17:11:59.308Z,12.67
2019-03-23T17:14:40.363Z,17.43
2019-03-23T17:17:21.298Z,13.40
2019-03-23T17:20:02.101Z,11.67
2019-03-23T17:22:43.053Z,14.47
2019-03-23T17:25:23.879Z,15.00
2019-03-23T17:28:05.994Z,14.83
2019-03-23T17:30:49.713Z,14.27
2019-03-23T17:33:30.084Z,14.80
2019-03-23T17:36:10.818Z,12.23
2019-03-23T17:38:51.249Z,14.27
2019-03-23T17:44:19.863Z,20.80
2019-03-23T17:47:00.667Z,13.17
2019-03-23T17:49:42.680Z,16.47
2019-03-23T17:52:23.584Z,14.40
2019-03-23T17:55:03.948Z,14.63
2019-03-23T17:57:44.539Z,17.13
2019-03-23T18:03:14.760Z,17.97
2019-03-23T18:05:56.152Z,14.40
2019-03-23T18:08:36.992Z,17.30
2019-03-23T18:11:17.653Z,14.60
2019-03-23T18:13:58.809Z,20.13
2019-03-23T18:16:40.302Z,14.03
2019-03-23T18:19:21.215Z,10.00
2019-03-23T18:22:02.433Z,14.30
2019-03-23T18:27:29.090Z,19.93
2019-03-23T18:30:09.615Z,14.97
2019-03-23T18:32:50.151Z,14.73
2019-03-23T18:35:31.148Z,15.13
2019-03-23T18:38:11.606Z,14.57
2019-03-23T18:40:55.680Z,16.53
2019-03-23T18:43:36.821Z,18.13
2019-03-23T18:46:17.399Z,16.60
2019-03-23T18:48:58.035Z,17.07
2019-03-23T18:51:38.517Z,17.13
2019-03-23T18:54:19.223Z,16.90
2019-03-23T18:57:01.276Z,19.73
2019-03-23T18:59:18.272Z,18.33
2019-03-23T19:02:06.163Z,16.17
2019-03-23T19:04:47.018Z,14.00
2019-03-23T19:07:32.334Z,14.87
2019-03-23T19:10:13.675Z,17.77
2019-03-23T19:12:54.438Z,15.93
2019-03-23T19:15:35.398Z,20.37
2019-03-23T19:18:16.241Z,12.50
2019-03-23T19:20:58.661Z,18.90
2019-03-23T19:23:41.146Z,16.57
2019-03-23T19:29:00.605Z,16.60
2019-03-23T19:31:41.448Z,17.73
2019-03-23T19:34:25.213Z,17.70
2019-03-23T19:39:47.907Z,17.03
2019-03-23T19:42:28.436Z,12.53
2019-03-23T19:45:10.355Z,18.57
2019-03-23T19:50:35.824Z,18.77
2019-03-23T19:53:16.798Z,15.60
2019-03-23T19:55:57.647Z,19.00
2019-03-23T19:58:38.545Z,17.93
2019-03-23T20:01:19.315Z,12.07
2019-03-23T20:04:00.180Z,13.53
2019-03-23T20:06:41.344Z,19.00
2019-03-23T20:09:21.816Z,18.33
2019-03-23T20:12:02.457Z,16.67
2019-03-23T20:14:43.753Z,14.07
2019-03-23T20:17:24.247Z,12.17
2019-03-23T20:20:05.106Z,22.47
2019-03-23T20:22:45.625Z,17.03
2019-03-23T20:25:26.348Z,16.87
2019-03-23T20:28:07.064Z,15.70
2019-03-23T20:30:48.178Z,18.43
2019-03-23T20:33:28.705Z,14.20
2019-03-23T20:36:09.443Z,16.97
2019-03-23T20:38:50.507Z,19.60
2019-03-23T20:41:31.234Z,23.63
2019-03-23T20:44:12.218Z,22.60
2019-03-23T20:46:52.796Z,19.60
2019-03-23T20:49:33.575Z,21.27
2019-03-23T20:52:13.889Z,13.47
2019-03-23T20:54:54.623Z,15.80
2019-03-23T20:57:37.690Z,19.83
2019-03-23T21:00:19.679Z,18.57
2019-03-23T21:03:03.697Z,19.17
2019-03-23T21:08:28.518Z,14.83
2019-03-23T21:13:51.598Z,17.47
2019-03-23T21:16:34.250Z,23.03
2019-03-23T21:19:15.245Z,12.43
2019-03-23T21:21:56.119Z,17.93
2019-03-23T21:27:22.721Z,14.97
2019-03-23T21:30:03.773Z,13.57
2019-03-23T21:32:44.557Z,15.60
2019-03-23T21:35:24.960Z,16.67
2019-03-23T21:38:05.906Z,26.33
2019-03-23T21:40:46.299Z,19.47
2019-03-23T21:43:26.885Z,23.30
2019-03-23T21:48:51.466Z,19.20
2019-03-23T21:51:32.199Z,16.60
2019-03-23T21:54:13.071Z,15.93
2019-03-23T21:56:53.515Z,23.77
2019-03-23T21:59:34.748Z,21.73
2019-03-23T22:02:16.940Z,15.97
2019-03-23T22:04:45.420Z,15.33
2019-03-23T22:07:33.210Z,15.67
2019-03-23T22:10:13.838Z,14.20
2019-03-23T22:12:54.798Z,16.30
2019-03-23T22:15:35.470Z,23.00
2019-03-23T22:18:16.382Z,20.07
2019-03-23T22:20:57.702Z,18.50
2019-03-23T22:23:38.555Z,19.20
2019-03-23T22:26:19.105Z,17.90
2019-03-23T22:28:59.754Z,19.07
2019-03-23T22:31:40.482Z,15.63
2019-03-23T22:34:21.196Z,16.63
2019-03-23T22:37:02.249Z,23.77
2019-03-23T22:39:42.874Z,19.10
2019-03-23T22:42:23.911Z,16.97
2019-03-23T22:45:04.291Z,19.17
2019-03-23T22:47:45.144Z,30.03
2019-03-23T22:50:26.125Z,12.97
2019-03-23T22:53:06.978Z,19.03
2019-03-23T22:55:47.836Z,20.13
2019-03-23T22:58:28.572Z,20.83
2019-03-23T23:01:09.373Z,16.00
2019-03-23T23:03:49.984Z,15.27
2019-03-23T23:06:29.249Z,17.43
2019-03-23T23:09:17.143Z,20.10
2019-03-23T23:11:57.646Z,14.47
2019-03-23T23:14:38.268Z,16.73
2019-03-23T23:17:19.385Z,14.47
2019-03-23T23:20:00.311Z,12.87
2019-03-23T23:22:41.232Z,18.23
2019-03-23T23:25:22.001Z,16.53
2019-03-23T23:28:02.940Z,17.33
2019-03-23T23:30:43.603Z,21.23
2019-03-23T23:33:24.088Z,15.23
2019-03-23T23:36:05.156Z,18.10
2019-03-23T23:38:45.475Z,14.80
2019-03-23T23:41:26.332Z,14.50
2019-03-23T23:44:07.368Z,12.50
2019-03-23T23:46:48.204Z,20.47
2019-03-23T23:49:29.224Z,20.90
2019-03-23T23:52:09.875Z,17.43
2019-03-23T23:54:50.567Z,17.30
2019-03-23T23:57:31.064Z,18.13
